sensor_id;sensor_type;location;lat;lon;timestamp;temperature;humidity
71879;DHT22;59755;43.834;4.364;2022-08-19T00:00:29;22.30;57.50
71879;DHT22;59755;43.834;4.364;2022-08-19T00:02:55;22.40;57.10
71879;DHT22;59755;43.834;4.364;2022-08-19T00:05:22;22.40;56.70
71879;DHT22;59755;43.834;4.364;2022-08-19T00:07:49;22.40;56.70
71879;DHT22;59755;43.834;4.364;2022-08-19T00:10:15;22.50;56.20
71879;DHT22;59755;43.834;4.364;2022-08-19T00:12:42;22.50;56.10
71879;DHT22;59755;43.834;4.364;2022-08-19T00:15:10;22.50;56.20
71879;DHT22;59755;43.834;4.364;2022-08-19T00:17:41;22.50;56.00
71879;DHT22;59755;43.834;4.364;2022-08-19T00:20:09;22.60;55.80
71879;DHT22;59755;43.834;4.364;2022-08-19T00:22:36;22.50;56.00
71879;DHT22;59755;43.834;4.364;2022-08-19T00:25:02;22.50;56.10
71879;DHT22;59755;43.834;4.364;2022-08-19T00:27:28;22.50;56.30
71879;DHT22;59755;43.834;4.364;2022-08-19T00:29:54;22.50;56.40
71879;DHT22;59755;43.834;4.364;2022-08-19T00:32:20;22.50;56.30
71879;DHT22;59755;43.834;4.364;2022-08-19T00:34:46;22.50;56.30
71879;DHT22;59755;43.834;4.364;2022-08-19T00:37:12;22.50;56.30
71879;DHT22;59755;43.834;4.364;2022-08-19T00:39:38;22.50;56.40
71879;DHT22;59755;43.834;4.364;2022-08-19T00:42:04;22.50;56.10
71879;DHT22;59755;43.834;4.364;2022-08-19T00:44:31;22.50;56.30
71879;DHT22;59755;43.834;4.364;2022-08-19T00:46:58;22.50;55.80
71879;DHT22;59755;43.834;4.364;2022-08-19T00:51:55;22.40;55.70
71879;DHT22;59755;43.834;4.364;2022-08-19T00:54:22;22.40;55.90
71879;DHT22;59755;43.834;4.364;2022-08-19T00:57:09;22.40;55.90
71879;DHT22;59755;43.834;4.364;2022-08-19T00:59:39;22.40;55.80
71879;DHT22;59755;43.834;4.364;2022-08-19T01:02:05;22.40;55.80
71879;DHT22;59755;43.834;4.364;2022-08-19T01:04:31;22.40;55.90
71879;DHT22;59755;43.834;4.364;2022-08-19T01:06:58;22.30;56.00
71879;DHT22;59755;43.834;4.364;2022-08-19T01:09:24;22.30;56.10
71879;DHT22;59755;43.834;4.364;2022-08-19T01:11:50;22.20;56.50
71879;DHT22;59755;43.834;4.364;2022-08-19T01:14:16;22.20;56.70
71879;DHT22;59755;43.834;4.364;2022-08-19T01:16:44;22.20;57.20
71879;DHT22;59755;43.834;4.364;2022-08-19T01:19:33;22.20;57.30
71879;DHT22;59755;43.834;4.364;2022-08-19T01:22:14;22.10;57.70
71879;DHT22;59755;43.834;4.364;2022-08-19T01:24:41;22.10;57.90
71879;DHT22;59755;43.834;4.364;2022-08-19T01:27:08;22.10;58.40
71879;DHT22;59755;43.834;4.364;2022-08-19T01:29:38;22.10;58.30
71879;DHT22;59755;43.834;4.364;2022-08-19T01:32:04;22.10;58.50
71879;DHT22;59755;43.834;4.364;2022-08-19T01:34:30;22.10;58.70
71879;DHT22;59755;43.834;4.364;2022-08-19T01:36:55;22.00;59.00
71879;DHT22;59755;43.834;4.364;2022-08-19T01:39:24;21.90;59.40
71879;DHT22;59755;43.834;4.364;2022-08-19T01:41:50;21.90;59.60
71879;DHT22;59755;43.834;4.364;2022-08-19T01:44:20;22.00;59.50
71879;DHT22;59755;43.834;4.364;2022-08-19T01:46:50;21.90;59.50
71879;DHT22;59755;43.834;4.364;2022-08-19T01:49:18;21.90;59.70
71879;DHT22;59755;43.834;4.364;2022-08-19T01:51:45;21.80;60.00
71879;DHT22;59755;43.834;4.364;2022-08-19T01:54:13;21.90;60.00
71879;DHT22;59755;43.834;4.364;2022-08-19T01:56:40;21.90;59.80
71879;DHT22;59755;43.834;4.364;2022-08-19T01:59:25;21.90;59.80
71879;DHT22;59755;43.834;4.364;2022-08-19T02:02:09;21.80;59.80
71879;DHT22;59755;43.834;4.364;2022-08-19T02:04:53;21.80;59.80
71879;DHT22;59755;43.834;4.364;2022-08-19T02:07:20;21.80;60.00
71879;DHT22;59755;43.834;4.364;2022-08-19T02:09:47;21.70;60.30
71879;DHT22;59755;43.834;4.364;2022-08-19T02:12:14;21.70;60.20
71879;DHT22;59755;43.834;4.364;2022-08-19T02:14:40;21.80;60.00
71879;DHT22;59755;43.834;4.364;2022-08-19T02:17:06;21.70;60.20
71879;DHT22;59755;43.834;4.364;2022-08-19T02:19:32;21.70;60.30
71879;DHT22;59755;43.834;4.364;2022-08-19T02:21:59;21.70;60.00
71879;DHT22;59755;43.834;4.364;2022-08-19T02:24:26;21.80;59.70
71879;DHT22;59755;43.834;4.364;2022-08-19T02:26:52;21.80;59.60
71879;DHT22;59755;43.834;4.364;2022-08-19T02:29:18;21.80;59.20
71879;DHT22;59755;43.834;4.364;2022-08-19T02:31:44;21.80;58.70
71879;DHT22;59755;43.834;4.364;2022-08-19T02:34:09;21.90;58.40
71879;DHT22;59755;43.834;4.364;2022-08-19T02:36:35;22.00;57.90
71879;DHT22;59755;43.834;4.364;2022-08-19T02:39:01;22.00;57.80
71879;DHT22;59755;43.834;4.364;2022-08-19T02:41:32;22.10;58.10
71879;DHT22;59755;43.834;4.364;2022-08-19T02:44:00;22.10;57.80
71879;DHT22;59755;43.834;4.364;2022-08-19T02:46:28;22.10;57.70
71879;DHT22;59755;43.834;4.364;2022-08-19T02:48:57;22.00;57.90
71879;DHT22;59755;43.834;4.364;2022-08-19T02:51:26;22.10;58.00
71879;DHT22;59755;43.834;4.364;2022-08-19T02:53:52;22.00;57.90
71879;DHT22;59755;43.834;4.364;2022-08-19T02:56:19;22.00;58.10
71879;DHT22;59755;43.834;4.364;2022-08-19T02:58:45;22.00;58.00
71879;DHT22;59755;43.834;4.364;2022-08-19T03:01:11;22.00;58.00
71879;DHT22;59755;43.834;4.364;2022-08-19T03:03:44;22.00;57.90
71879;DHT22;59755;43.834;4.364;2022-08-19T03:06:13;22.00;57.80
71879;DHT22;59755;43.834;4.364;2022-08-19T03:08:41;22.00;57.80
71879;DHT22;59755;43.834;4.364;2022-08-19T03:11:17;22.10;57.70
71879;DHT22;59755;43.834;4.364;2022-08-19T03:13:43;22.10;57.50
71879;DHT22;59755;43.834;4.364;2022-08-19T03:16:09;22.00;57.80
71879;DHT22;59755;43.834;4.364;2022-08-19T03:18:35;22.10;57.40
71879;DHT22;59755;43.834;4.364;2022-08-19T03:21:01;22.10;57.30
71879;DHT22;59755;43.834;4.364;2022-08-19T03:23:26;22.20;57.20
71879;DHT22;59755;43.834;4.364;2022-08-19T03:25:53;22.20;57.20
71879;DHT22;59755;43.834;4.364;2022-08-19T03:28:19;22.20;57.00
71879;DHT22;59755;43.834;4.364;2022-08-19T03:31:05;22.10;57.30
71879;DHT22;59755;43.834;4.364;2022-08-19T03:33:33;22.10;57.20
71879;DHT22;59755;43.834;4.364;2022-08-19T03:36:15;22.10;57.30
71879;DHT22;59755;43.834;4.364;2022-08-19T03:38:44;22.10;57.60
71879;DHT22;59755;43.834;4.364;2022-08-19T03:41:13;22.10;57.70
71879;DHT22;59755;43.834;4.364;2022-08-19T03:43:41;22.10;57.70
71879;DHT22;59755;43.834;4.364;2022-08-19T03:46:12;22.10;57.70
71879;DHT22;59755;43.834;4.364;2022-08-19T03:48:40;22.10;57.50
71879;DHT22;59755;43.834;4.364;2022-08-19T03:51:07;22.10;57.50
71879;DHT22;59755;43.834;4.364;2022-08-19T03:53:34;22.20;57.30
71879;DHT22;59755;43.834;4.364;2022-08-19T03:56:01;22.20;57.10
71879;DHT22;59755;43.834;4.364;2022-08-19T03:58:29;22.10;57.20
71879;DHT22;59755;43.834;4.364;2022-08-19T04:00:58;22.10;57.30
71879;DHT22;59755;43.834;4.364;2022-08-19T04:03:25;22.10;57.20
71879;DHT22;59755;43.834;4.364;2022-08-19T04:05:53;22.10;57.20
71879;DHT22;59755;43.834;4.364;2022-08-19T04:08:19;22.10;57.30
71879;DHT22;59755;43.834;4.364;2022-08-19T04:10:48;22.10;57.30
71879;DHT22;59755;43.834;4.364;2022-08-19T04:13:18;22.10;57.30
71879;DHT22;59755;43.834;4.364;2022-08-19T04:15:45;22.10;57.50
71879;DHT22;59755;43.834;4.364;2022-08-19T04:18:12;22.10;57.70
71879;DHT22;59755;43.834;4.364;2022-08-19T04:20:46;22.00;57.80
71879;DHT22;59755;43.834;4.364;2022-08-19T04:23:14;22.00;57.80
71879;DHT22;59755;43.834;4.364;2022-08-19T04:25:42;22.00;57.90
71879;DHT22;59755;43.834;4.364;2022-08-19T04:28:11;22.00;58.00
71879;DHT22;59755;43.834;4.364;2022-08-19T04:30:46;22.00;57.90
71879;DHT22;59755;43.834;4.364;2022-08-19T04:33:14;22.00;58.00
71879;DHT22;59755;43.834;4.364;2022-08-19T04:35:44;22.00;58.10
71879;DHT22;59755;43.834;4.364;2022-08-19T04:38:10;21.90;58.40
71879;DHT22;59755;43.834;4.364;2022-08-19T04:40:44;21.80;58.80
71879;DHT22;59755;43.834;4.364;2022-08-19T04:43:29;21.80;58.60
71879;DHT22;59755;43.834;4.364;2022-08-19T04:45:55;21.80;58.80
71879;DHT22;59755;43.834;4.364;2022-08-19T04:48:21;21.80;58.70
71879;DHT22;59755;43.834;4.364;2022-08-19T04:50:53;21.80;58.60
71879;DHT22;59755;43.834;4.364;2022-08-19T04:53:33;21.80;58.70
71879;DHT22;59755;43.834;4.364;2022-08-19T04:56:07;21.80;58.60
71879;DHT22;59755;43.834;4.364;2022-08-19T04:58:35;21.80;58.40
71879;DHT22;59755;43.834;4.364;2022-08-19T05:01:02;21.90;58.20
71879;DHT22;59755;43.834;4.364;2022-08-19T05:03:28;21.90;58.00
71879;DHT22;59755;43.834;4.364;2022-08-19T05:06:13;21.90;58.00
71879;DHT22;59755;43.834;4.364;2022-08-19T05:08:41;21.90;58.00
71879;DHT22;59755;43.834;4.364;2022-08-19T05:11:20;21.90;57.60
71879;DHT22;59755;43.834;4.364;2022-08-19T05:13:48;21.90;57.60
71879;DHT22;59755;43.834;4.364;2022-08-19T05:16:16;21.90;57.50
71879;DHT22;59755;43.834;4.364;2022-08-19T05:18:43;21.90;57.30
71879;DHT22;59755;43.834;4.364;2022-08-19T05:21:28;22.00;57.00
71879;DHT22;59755;43.834;4.364;2022-08-19T05:24:13;22.00;56.70
71879;DHT22;59755;43.834;4.364;2022-08-19T05:26:41;22.10;56.70
71879;DHT22;59755;43.834;4.364;2022-08-19T05:29:08;22.10;56.50
71879;DHT22;59755;43.834;4.364;2022-08-19T05:31:35;22.10;56.20
71879;DHT22;59755;43.834;4.364;2022-08-19T05:34:01;22.20;56.10
71879;DHT22;59755;43.834;4.364;2022-08-19T05:36:38;22.20;55.90
71879;DHT22;59755;43.834;4.364;2022-08-19T05:39:07;22.20;55.80
71879;DHT22;59755;43.834;4.364;2022-08-19T05:41:33;22.30;55.60
71879;DHT22;59755;43.834;4.364;2022-08-19T05:44:04;22.30;55.60
71879;DHT22;59755;43.834;4.364;2022-08-19T05:46:38;22.30;55.60
71879;DHT22;59755;43.834;4.364;2022-08-19T05:49:07;22.40;55.60
71879;DHT22;59755;43.834;4.364;2022-08-19T05:51:35;22.40;55.60
71879;DHT22;59755;43.834;4.364;2022-08-19T05:54:03;22.40;55.70
71879;DHT22;59755;43.834;4.364;2022-08-19T05:56:30;22.40;55.90
71879;DHT22;59755;43.834;4.364;2022-08-19T05:58:57;22.30;56.10
71879;DHT22;59755;43.834;4.364;2022-08-19T06:01:25;22.30;56.10
71879;DHT22;59755;43.834;4.364;2022-08-19T06:03:52;22.30;56.40
71879;DHT22;59755;43.834;4.364;2022-08-19T06:06:18;22.30;56.40
71879;DHT22;59755;43.834;4.364;2022-08-19T06:08:45;22.30;56.50
71879;DHT22;59755;43.834;4.364;2022-08-19T06:11:34;22.30;56.10
71879;DHT22;59755;43.834;4.364;2022-08-19T06:14:06;22.30;56.20
71879;DHT22;59755;43.834;4.364;2022-08-19T06:16:37;22.30;56.00
71879;DHT22;59755;43.834;4.364;2022-08-19T06:19:07;22.30;56.00
71879;DHT22;59755;43.834;4.364;2022-08-19T06:21:34;22.40;56.10
71879;DHT22;59755;43.834;4.364;2022-08-19T06:24:03;22.40;55.60
71879;DHT22;59755;43.834;4.364;2022-08-19T06:26:30;22.50;55.70
71879;DHT22;59755;43.834;4.364;2022-08-19T06:28:56;22.50;55.40
71879;DHT22;59755;43.834;4.364;2022-08-19T06:31:25;22.60;55.50
71879;DHT22;59755;43.834;4.364;2022-08-19T06:33:52;22.70;55.30
71879;DHT22;59755;43.834;4.364;2022-08-19T06:36:21;22.70;55.20
71879;DHT22;59755;43.834;4.364;2022-08-19T06:38:47;22.80;55.10
71879;DHT22;59755;43.834;4.364;2022-08-19T06:41:13;22.90;55.20
71879;DHT22;59755;43.834;4.364;2022-08-19T06:43:38;22.90;54.90
71879;DHT22;59755;43.834;4.364;2022-08-19T06:46:10;22.90;55.00
71879;DHT22;59755;43.834;4.364;2022-08-19T06:48:37;23.00;54.70
71879;DHT22;59755;43.834;4.364;2022-08-19T06:51:03;23.10;54.70
71879;DHT22;59755;43.834;4.364;2022-08-19T06:53:31;23.10;54.30
71879;DHT22;59755;43.834;4.364;2022-08-19T06:55:57;23.20;54.40
71879;DHT22;59755;43.834;4.364;2022-08-19T06:58:30;23.20;54.20
71879;DHT22;59755;43.834;4.364;2022-08-19T07:00:59;23.30;54.20
71879;DHT22;59755;43.834;4.364;2022-08-19T07:03:28;23.40;53.90
71879;DHT22;59755;43.834;4.364;2022-08-19T07:05:54;23.50;53.50
71879;DHT22;59755;43.834;4.364;2022-08-19T07:08:20;23.50;53.40
71879;DHT22;59755;43.834;4.364;2022-08-19T07:10:46;23.60;53.50
71879;DHT22;59755;43.834;4.364;2022-08-19T07:13:12;23.60;53.40
71879;DHT22;59755;43.834;4.364;2022-08-19T07:15:37;23.60;53.00
71879;DHT22;59755;43.834;4.364;2022-08-19T07:18:03;23.70;52.80
71879;DHT22;59755;43.834;4.364;2022-08-19T07:20:29;23.70;52.50
71879;DHT22;59755;43.834;4.364;2022-08-19T07:22:55;23.80;52.50
71879;DHT22;59755;43.834;4.364;2022-08-19T07:25:20;23.90;52.40
71879;DHT22;59755;43.834;4.364;2022-08-19T07:27:49;23.90;52.20
71879;DHT22;59755;43.834;4.364;2022-08-19T07:30:15;24.00;51.90
71879;DHT22;59755;43.834;4.364;2022-08-19T07:32:42;24.10;51.70
71879;DHT22;59755;43.834;4.364;2022-08-19T07:35:09;24.10;51.50
71879;DHT22;59755;43.834;4.364;2022-08-19T07:37:35;24.20;51.50
71879;DHT22;59755;43.834;4.364;2022-08-19T07:40:05;24.30;51.40
71879;DHT22;59755;43.834;4.364;2022-08-19T07:42:31;24.40;51.00
71879;DHT22;59755;43.834;4.364;2022-08-19T07:44:57;24.40;51.20
71879;DHT22;59755;43.834;4.364;2022-08-19T07:47:23;24.50;51.00
71879;DHT22;59755;43.834;4.364;2022-08-19T07:49:49;24.50;50.70
71879;DHT22;59755;43.834;4.364;2022-08-19T07:52:15;24.60;50.40
71879;DHT22;59755;43.834;4.364;2022-08-19T07:54:42;24.60;50.10
71879;DHT22;59755;43.834;4.364;2022-08-19T07:57:08;24.70;50.10
71879;DHT22;59755;43.834;4.364;2022-08-19T07:59:35;24.80;49.90
71879;DHT22;59755;43.834;4.364;2022-08-19T08:02:01;25.00;49.40
71879;DHT22;59755;43.834;4.364;2022-08-19T08:04:29;25.10;48.30
71879;DHT22;59755;43.834;4.364;2022-08-19T08:07:14;25.10;47.80
71879;DHT22;59755;43.834;4.364;2022-08-19T08:09:59;25.20;47.90
71879;DHT22;59755;43.834;4.364;2022-08-19T08:12:29;25.20;47.10
71879;DHT22;59755;43.834;4.364;2022-08-19T08:14:58;25.30;47.20
71879;DHT22;59755;43.834;4.364;2022-08-19T08:17:26;25.30;47.00
71879;DHT22;59755;43.834;4.364;2022-08-19T08:19:52;25.40;47.10
71879;DHT22;59755;43.834;4.364;2022-08-19T08:22:20;25.40;47.10
71879;DHT22;59755;43.834;4.364;2022-08-19T08:25:16;25.40;47.30
71879;DHT22;59755;43.834;4.364;2022-08-19T08:27:45;25.50;47.10
71879;DHT22;59755;43.834;4.364;2022-08-19T08:30:15;25.60;47.10
71879;DHT22;59755;43.834;4.364;2022-08-19T08:32:41;25.60;47.00
71879;DHT22;59755;43.834;4.364;2022-08-19T08:35:10;25.60;47.20
71879;DHT22;59755;43.834;4.364;2022-08-19T08:37:56;25.70;46.80
71879;DHT22;59755;43.834;4.364;2022-08-19T08:43:24;25.90;46.70
71879;DHT22;59755;43.834;4.364;2022-08-19T08:46:00;26.00;46.40
71879;DHT22;59755;43.834;4.364;2022-08-19T08:48:32;26.10;46.00
71879;DHT22;59755;43.834;4.364;2022-08-19T08:51:03;26.10;46.10
71879;DHT22;59755;43.834;4.364;2022-08-19T08:53:30;26.10;46.10
71879;DHT22;59755;43.834;4.364;2022-08-19T08:55:58;26.20;46.00
71879;DHT22;59755;43.834;4.364;2022-08-19T09:01:34;26.60;45.00
71879;DHT22;59755;43.834;4.364;2022-08-19T09:04:19;26.70;44.70
71879;DHT22;59755;43.834;4.364;2022-08-19T09:07:39;26.70;44.50
71879;DHT22;59755;43.834;4.364;2022-08-19T09:09:45;26.70;44.60
71879;DHT22;59755;43.834;4.364;2022-08-19T09:12:31;26.80;44.20
71879;DHT22;59755;43.834;4.364;2022-08-19T09:15:04;26.70;44.30
71879;DHT22;59755;43.834;4.364;2022-08-19T09:17:31;26.90;44.10
71879;DHT22;59755;43.834;4.364;2022-08-19T09:22:26;26.90;43.70
71879;DHT22;59755;43.834;4.364;2022-08-19T09:24:52;27.00;43.70
71879;DHT22;59755;43.834;4.364;2022-08-19T09:27:22;27.10;43.60
71879;DHT22;59755;43.834;4.364;2022-08-19T09:29:51;27.20;43.70
71879;DHT22;59755;43.834;4.364;2022-08-19T09:32:20;27.40;43.40
71879;DHT22;59755;43.834;4.364;2022-08-19T09:34:45;27.50;42.70
71879;DHT22;59755;43.834;4.364;2022-08-19T09:37:11;27.50;42.50
71879;DHT22;59755;43.834;4.364;2022-08-19T09:39:38;27.60;42.30
71879;DHT22;59755;43.834;4.364;2022-08-19T09:42:09;27.60;41.80
71879;DHT22;59755;43.834;4.364;2022-08-19T09:44:42;27.50;42.00
71879;DHT22;59755;43.834;4.364;2022-08-19T09:47:12;27.70;41.60
71879;DHT22;59755;43.834;4.364;2022-08-19T09:49:39;27.90;41.30
71879;DHT22;59755;43.834;4.364;2022-08-19T09:52:06;28.00;41.00
71879;DHT22;59755;43.834;4.364;2022-08-19T09:54:33;28.20;41.20
71879;DHT22;59755;43.834;4.364;2022-08-19T09:56:59;28.30;41.00
71879;DHT22;59755;43.834;4.364;2022-08-19T09:59:26;28.30;40.50
71879;DHT22;59755;43.834;4.364;2022-08-19T10:01:52;28.50;40.50
71879;DHT22;59755;43.834;4.364;2022-08-19T10:04:17;28.70;40.20
71879;DHT22;59755;43.834;4.364;2022-08-19T10:06:43;28.70;40.10
71879;DHT22;59755;43.834;4.364;2022-08-19T10:09:10;28.80;39.70
71879;DHT22;59755;43.834;4.364;2022-08-19T10:11:40;29.00;39.20
71879;DHT22;59755;43.834;4.364;2022-08-19T10:14:06;29.20;38.90
71879;DHT22;59755;43.834;4.364;2022-08-19T10:16:32;29.40;38.60
71879;DHT22;59755;43.834;4.364;2022-08-19T10:18:59;29.40;38.70
71879;DHT22;59755;43.834;4.364;2022-08-19T10:21:30;29.00;39.20
71879;DHT22;59755;43.834;4.364;2022-08-19T10:23:57;29.00;39.50
71879;DHT22;59755;43.834;4.364;2022-08-19T10:26:27;29.40;38.90
71879;DHT22;59755;43.834;4.364;2022-08-19T10:28:53;29.40;38.90
71879;DHT22;59755;43.834;4.364;2022-08-19T10:31:22;29.70;38.40
71879;DHT22;59755;43.834;4.364;2022-08-19T10:33:49;29.60;38.40
71879;DHT22;59755;43.834;4.364;2022-08-19T10:36:21;29.60;38.30
71879;DHT22;59755;43.834;4.364;2022-08-19T10:38:51;29.40;38.50
71879;DHT22;59755;43.834;4.364;2022-08-19T10:41:20;30.10;37.90
71879;DHT22;59755;43.834;4.364;2022-08-19T10:43:47;30.30;37.30
71879;DHT22;59755;43.834;4.364;2022-08-19T10:46:21;30.60;36.70
71879;DHT22;59755;43.834;4.364;2022-08-19T10:48:48;30.70;36.20
71879;DHT22;59755;43.834;4.364;2022-08-19T10:51:14;30.80;36.20
71879;DHT22;59755;43.834;4.364;2022-08-19T10:53:59;31.10;36.00
71879;DHT22;59755;43.834;4.364;2022-08-19T10:56:27;31.10;35.80
71879;DHT22;59755;43.834;4.364;2022-08-19T10:59:13;31.70;35.00
71879;DHT22;59755;43.834;4.364;2022-08-19T11:02:02;32.50;33.80
71879;DHT22;59755;43.834;4.364;2022-08-19T11:04:29;32.00;34.30
71879;DHT22;59755;43.834;4.364;2022-08-19T11:06:55;32.50;33.70
71879;DHT22;59755;43.834;4.364;2022-08-19T11:09:23;32.90;33.30
71879;DHT22;59755;43.834;4.364;2022-08-19T11:11:50;32.80;33.30
71879;DHT22;59755;43.834;4.364;2022-08-19T11:14:19;33.70;32.20
71879;DHT22;59755;43.834;4.364;2022-08-19T11:16:49;32.50;33.30
71879;DHT22;59755;43.834;4.364;2022-08-19T11:19:17;32.10;34.20
71879;DHT22;59755;43.834;4.364;2022-08-19T11:21:47;32.30;33.90
71879;DHT22;59755;43.834;4.364;2022-08-19T11:24:19;34.10;31.70
71879;DHT22;59755;43.834;4.364;2022-08-19T11:26:47;34.30;30.80
71879;DHT22;59755;43.834;4.364;2022-08-19T11:29:15;33.00;32.30
71879;DHT22;59755;43.834;4.364;2022-08-19T11:31:44;32.40;32.90
71879;DHT22;59755;43.834;4.364;2022-08-19T11:34:14;32.10;33.30
71879;DHT22;59755;43.834;4.364;2022-08-19T11:36:44;33.20;32.40
71879;DHT22;59755;43.834;4.364;2022-08-19T11:39:15;33.70;31.70
